createdAt,value
2022-11-24T00:00:04.089Z,10.65
2022-11-24T00:02:31.614Z,11.52
2022-11-24T00:04:58.970Z,12.88
2022-11-24T00:07:26.320Z,13.32
2022-11-24T00:09:53.916Z,14.18
2022-11-24T00:12:23.418Z,13.75
2022-11-24T00:14:50.758Z,14.70
2022-11-24T00:17:18.006Z,14.57
2022-11-24T00:19:45.353Z,11.32
2022-11-24T00:22:12.601Z,12.23
2022-11-24T00:24:39.863Z,11.50
2022-11-24T00:27:07.175Z,12.45
2022-11-24T00:29:34.465Z,12.00
2022-11-24T00:32:06.022Z,12.38
2022-11-24T00:34:34.117Z,10.82
2022-11-24T00:37:01.567Z,13.25
2022-11-24T00:39:28.870Z,11.57
2022-11-24T00:41:56.237Z,10.73
2022-11-24T00:44:23.479Z,14.50
2022-11-24T00:46:50.865Z,12.98
2022-11-24T00:49:18.203Z,14.00
2022-11-24T00:51:45.934Z,12.90
2022-11-24T00:54:13.257Z,10.52
2022-11-24T00:56:40.546Z,11.48
2022-11-24T00:59:07.873Z,12.00
2022-11-24T01:01:35.320Z,16.15
2022-11-24T01:04:03.070Z,12.68
2022-11-24T01:06:31.100Z,10.98
2022-11-24T01:08:58.458Z,12.85
2022-11-24T01:11:27.402Z,12.75
2022-11-24T01:13:57.509Z,12.30
2022-11-24T01:16:30.016Z,13.93
2022-11-24T01:18:57.326Z,16.05
2022-11-24T01:21:24.649Z,12.15
2022-11-24T01:23:52.037Z,15.43
2022-11-24T01:26:22.765Z,12.82
2022-11-24T01:28:57.210Z,15.57
2022-11-24T01:31:24.891Z,12.65
2022-11-24T01:33:52.235Z,14.93
2022-11-24T01:36:19.746Z,11.30
2022-11-24T01:38:47.038Z,13.00
2022-11-24T01:41:15.480Z,12.25
2022-11-24T01:43:43.491Z,11.27
2022-11-24T01:46:25.313Z,13.05
2022-11-24T01:48:57.074Z,11.50
2022-11-24T01:51:25.991Z,12.52
2022-11-24T01:53:55.868Z,13.13
2022-11-24T01:56:23.506Z,11.93
2022-11-24T01:58:51.695Z,12.45
2022-11-24T02:01:19.305Z,11.93
2022-11-24T02:03:47.487Z,13.45
2022-11-24T02:06:17.685Z,13.70
2022-11-24T02:08:50.783Z,11.70
2022-11-24T02:11:18.690Z,13.50
2022-11-24T02:13:46.456Z,16.38
2022-11-24T02:16:13.860Z,13.27
2022-11-24T02:18:42.857Z,13.55
2022-11-24T02:21:11.977Z,12.35
2022-11-24T02:23:51.326Z,14.77
2022-11-24T02:26:54.203Z,12.25
2022-11-24T02:29:21.646Z,16.45
2022-11-24T02:31:51.936Z,14.90
2022-11-24T02:34:19.195Z,15.55
2022-11-24T02:36:46.486Z,14.50
2022-11-24T02:39:14.616Z,15.80
2022-11-24T02:41:47.414Z,15.93
2022-11-24T02:44:16.351Z,13.55
2022-11-24T02:46:43.716Z,16.45
2022-11-24T02:49:11.117Z,18.88
2022-11-24T02:51:38.423Z,17.38
2022-11-24T02:54:05.715Z,16.77
2022-11-24T02:56:35.271Z,21.52
2022-11-24T02:59:02.548Z,18.45
2022-11-24T03:01:29.858Z,19.83
2022-11-24T03:03:57.186Z,21.88
2022-11-24T03:06:24.432Z,17.58
2022-11-24T03:08:51.710Z,17.98
2022-11-24T03:11:18.986Z,21.00
2022-11-24T03:13:46.274Z,21.23
2022-11-24T03:16:13.625Z,18.13
2022-11-24T03:18:40.938Z,17.83
2022-11-24T03:21:08.259Z,21.80
2022-11-24T03:23:35.520Z,22.45
2022-11-24T03:26:13.546Z,22.85
2022-11-24T03:28:41.496Z,23.67
2022-11-24T03:31:09.414Z,24.40
2022-11-24T03:33:37.246Z,26.95
2022-11-24T03:36:05.382Z,62.58
2022-11-24T03:38:32.685Z,24.65
2022-11-24T03:41:00.206Z,25.55
2022-11-24T03:43:27.462Z,24.42
2022-11-24T03:45:54.799Z,25.48
2022-11-24T03:48:22.312Z,26.70
2022-11-24T03:50:56.332Z,27.33
2022-11-24T03:53:24.488Z,26.45
2022-11-24T03:55:51.782Z,25.98
2022-11-24T03:58:19.651Z,25.77
2022-11-24T04:00:47.422Z,26.77
2022-11-24T04:03:14.771Z,31.27
2022-11-24T04:05:42.130Z,28.02
2022-11-24T04:08:09.702Z,26.73
2022-11-24T04:10:37.927Z,29.38
2022-11-24T04:13:06.414Z,28.55
2022-11-24T04:15:33.711Z,30.55
2022-11-24T04:18:00.981Z,30.88
2022-11-24T04:20:28.333Z,28.23
2022-11-24T04:22:55.637Z,28.33
2022-11-24T04:25:23.019Z,24.73
2022-11-24T04:27:54.476Z,28.35
2022-11-24T04:30:22.308Z,29.92
2022-11-24T04:32:49.677Z,30.58
2022-11-24T04:35:17.004Z,28.77
2022-11-24T04:37:44.581Z,31.83
2022-11-24T04:40:12.582Z,27.70
2022-11-24T04:42:39.900Z,26.13
2022-11-24T04:45:07.835Z,27.75
2022-11-24T04:47:35.539Z,28.67
2022-11-24T04:50:04.697Z,32.05
2022-11-24T04:52:32.454Z,28.45
2022-11-24T04:54:59.715Z,31.23
2022-11-24T04:57:27.770Z,28.38
2022-11-24T04:59:55.623Z,29.05
2022-11-24T05:02:23.066Z,27.08
2022-11-24T05:04:50.434Z,30.60
2022-11-24T05:07:19.532Z,28.80
2022-11-24T05:10:06.149Z,25.13
2022-11-24T05:12:33.703Z,23.98
2022-11-24T05:15:01.794Z,25.92
2022-11-24T05:17:29.830Z,25.52
2022-11-24T05:19:57.638Z,25.92
2022-11-24T05:22:24.895Z,28.95
2022-11-24T05:24:52.354Z,27.75
2022-11-24T05:27:19.667Z,27.95
2022-11-24T05:29:46.927Z,30.65
2022-11-24T05:32:14.184Z,30.02
2022-11-24T05:34:41.434Z,30.73
2022-11-24T05:37:09.039Z,28.42
2022-11-24T05:39:37.147Z,28.48
2022-11-24T05:42:25.473Z,25.45
2022-11-24T05:44:52.972Z,26.38
2022-11-24T05:47:20.492Z,27.90
2022-11-24T05:49:47.808Z,28.45
2022-11-24T05:52:15.084Z,30.27
2022-11-24T05:54:42.331Z,28.88
2022-11-24T05:57:09.830Z,26.92
2022-11-24T05:59:37.102Z,26.92
2022-11-24T06:02:04.505Z,31.13
2022-11-24T06:04:32.498Z,25.10
2022-11-24T06:07:00.112Z,29.33
2022-11-24T06:09:27.352Z,27.88
2022-11-24T06:11:54.660Z,29.08
2022-11-24T06:14:24.390Z,26.92
2022-11-24T06:16:51.707Z,27.98
2022-11-24T06:19:18.985Z,27.30
2022-11-24T06:21:46.241Z,27.95
2022-11-24T06:24:14.791Z,28.48
2022-11-24T06:26:42.382Z,27.73
2022-11-24T06:29:09.857Z,26.70
2022-11-24T06:31:37.168Z,31.30
2022-11-24T06:34:07.861Z,27.90
2022-11-24T06:36:35.215Z,27.63
2022-11-24T06:39:02.903Z,30.92
2022-11-24T06:41:30.265Z,30.00
2022-11-24T06:43:57.698Z,27.50
2022-11-24T06:46:25.077Z,27.08
2022-11-24T06:48:53.026Z,30.25
2022-11-24T06:51:20.584Z,32.90
2022-11-24T06:53:47.847Z,29.80
2022-11-24T06:56:20.865Z,29.85
2022-11-24T06:58:48.934Z,33.42
2022-11-24T07:01:17.256Z,32.17
2022-11-24T07:03:44.938Z,28.48
2022-11-24T07:06:12.159Z,30.13
2022-11-24T07:08:39.381Z,30.02
2022-11-24T07:11:07.694Z,30.15
2022-11-24T07:13:35.004Z,27.10
2022-11-24T07:16:11.126Z,33.72
2022-11-24T07:18:38.385Z,28.40
2022-11-24T07:21:05.973Z,31.63
2022-11-24T07:23:33.268Z,33.63
2022-11-24T07:26:06.573Z,28.02
2022-11-24T07:28:34.436Z,30.80
2022-11-24T07:31:06.171Z,28.23
2022-11-24T07:33:33.508Z,29.23
2022-11-24T07:36:01.319Z,27.33
2022-11-24T07:38:29.515Z,25.48
2022-11-24T07:40:59.979Z,27.63
2022-11-24T07:43:27.297Z,27.85
2022-11-24T07:45:54.739Z,24.45
2022-11-24T07:48:22.007Z,29.63
2022-11-24T07:50:55.330Z,27.30
2022-11-24T07:53:23.184Z,24.13
2022-11-24T07:55:56.849Z,26.63
2022-11-24T07:58:27.577Z,26.27
2022-11-24T08:00:58.045Z,28.58
2022-11-24T08:03:25.545Z,25.17
2022-11-24T08:11:18.167Z,29.70
2022-11-24T08:13:48.980Z,28.35
2022-11-24T08:16:17.512Z,22.48
2022-11-24T08:18:45.073Z,23.48
2022-11-24T08:21:14.064Z,21.95
2022-11-24T08:23:41.883Z,23.20
2022-11-24T08:26:10.972Z,23.00
2022-11-24T08:28:38.330Z,19.05
2022-11-24T08:31:09.972Z,22.42
2022-11-24T08:33:37.513Z,22.63
2022-11-24T08:36:08.822Z,21.85
2022-11-24T08:38:36.141Z,20.35
2022-11-24T08:41:04.772Z,22.23
2022-11-24T08:43:32.131Z,26.05
2022-11-24T08:46:03.301Z,24.02
2022-11-24T08:48:30.970Z,19.98
2022-11-24T08:50:58.858Z,21.80
2022-11-24T08:53:26.411Z,19.42
2022-11-24T08:55:53.667Z,18.95
2022-11-24T08:58:20.981Z,21.25
2022-11-24T09:00:48.218Z,19.80
2022-11-24T09:03:15.552Z,19.58
2022-11-24T09:05:51.834Z,24.55
2022-11-24T09:08:19.674Z,19.92
2022-11-24T09:10:46.988Z,22.77
2022-11-24T09:13:14.280Z,17.10
2022-11-24T09:15:41.568Z,19.42
2022-11-24T09:18:08.865Z,21.73
2022-11-24T09:20:36.096Z,18.48
2022-11-24T09:23:03.373Z,20.95
2022-11-24T09:25:30.649Z,23.58
2022-11-24T09:27:59.954Z,19.88
2022-11-24T09:30:27.450Z,21.42
2022-11-24T09:32:56.153Z,20.73
2022-11-24T09:35:23.468Z,22.52
2022-11-24T09:37:51.346Z,21.90
2022-11-24T09:40:18.855Z,19.90
2022-11-24T09:43:03.925Z,21.98
2022-11-24T09:46:03.771Z,17.02
2022-11-24T09:48:33.107Z,17.60
2022-11-24T09:51:02.787Z,19.83
2022-11-24T09:53:30.303Z,19.25
2022-11-24T09:55:59.662Z,20.88
2022-11-24T09:58:45.841Z,18.65
2022-11-24T10:01:17.537Z,21.77
2022-11-24T10:03:46.403Z,22.77
2022-11-24T10:06:34.911Z,19.67
2022-11-24T10:09:11.279Z,21.00
2022-11-24T10:11:44.724Z,22.13
2022-11-24T10:14:18.140Z,23.40
2022-11-24T10:17:02.470Z,20.52
2022-11-24T10:19:37.095Z,21.90
2022-11-24T10:22:16.712Z,19.33
2022-11-24T10:25:02.513Z,19.73
2022-11-24T10:27:34.412Z,18.50
2022-11-24T10:30:02.295Z,18.63
2022-11-24T10:32:41.713Z,17.27
2022-11-24T10:35:22.751Z,17.63
2022-11-24T10:43:23.727Z,15.75
2022-11-24T10:45:51.198Z,18.13
2022-11-24T10:48:26.726Z,21.77
2022-11-24T10:50:55.061Z,20.00
2022-11-24T10:53:27.626Z,20.65
2022-11-24T10:55:57.718Z,18.98
2022-11-24T10:58:32.960Z,22.70
2022-11-24T11:01:13.596Z,17.10
2022-11-24T11:04:10.172Z,19.45
2022-11-24T11:06:38.182Z,19.17
2022-11-24T11:09:08.216Z,20.33
2022-11-24T11:11:40.114Z,18.40
2022-11-24T11:14:08.373Z,16.13
2022-11-24T11:16:37.728Z,18.75
2022-11-24T11:19:26.024Z,19.58
2022-11-24T11:22:04.493Z,15.82
2022-11-24T11:24:31.780Z,19.45
2022-11-24T11:27:02.936Z,18.48
2022-11-24T11:35:12.620Z,17.17
2022-11-24T11:37:39.916Z,16.80
2022-11-24T11:40:15.545Z,19.33
2022-11-24T11:43:01.952Z,15.70
2022-11-24T11:45:34.952Z,16.73
2022-11-24T11:48:02.477Z,16.35
2022-11-24T11:50:47.424Z,14.60
2022-11-24T11:53:25.735Z,20.65
2022-11-24T11:56:11.874Z,20.57
2022-11-24T11:58:39.187Z,16.33
2022-11-24T12:01:15.549Z,18.73
2022-11-24T12:03:58.341Z,15.07
2022-11-24T12:06:41.479Z,17.17
2022-11-24T12:09:21.511Z,16.38
2022-11-24T12:11:48.768Z,20.37
2022-11-24T12:14:16.041Z,16.08
2022-11-24T12:16:43.326Z,14.73
2022-11-24T12:19:24.570Z,17.15
2022-11-24T12:21:51.813Z,16.65
2022-11-24T12:24:19.259Z,17.23
2022-11-24T12:26:58.646Z,17.63
2022-11-24T12:29:37.953Z,28.63
2022-11-24T12:32:22.500Z,30.15
2022-11-24T12:34:50.317Z,23.83
2022-11-24T12:37:35.490Z,21.85
2022-11-24T12:40:02.751Z,21.85
2022-11-24T12:42:35.921Z,20.45
2022-11-24T12:45:13.760Z,19.08
2022-11-24T12:47:52.977Z,19.10
2022-11-24T12:50:21.439Z,16.02
2022-11-24T12:53:01.000Z,14.48
2022-11-24T12:55:29.619Z,16.63
2022-11-24T12:58:09.460Z,18.25
2022-11-24T13:00:53.491Z,16.02
2022-11-24T13:03:33.593Z,16.77
2022-11-24T13:06:10.831Z,15.50
2022-11-24T13:08:38.388Z,18.27
2022-11-24T13:11:24.178Z,19.42
2022-11-24T13:14:01.740Z,17.95
2022-11-24T13:16:41.015Z,23.42
2022-11-24T13:19:20.381Z,19.65
2022-11-24T13:21:56.904Z,17.90
2022-11-24T13:24:26.173Z,17.02
2022-11-24T13:26:55.275Z,16.58
2022-11-24T13:29:25.759Z,20.92
2022-11-24T13:31:53.086Z,16.08
2022-11-24T13:34:38.989Z,17.48
2022-11-24T13:37:31.592Z,18.60
2022-11-24T13:40:03.267Z,17.65
2022-11-24T13:42:42.235Z,18.52
2022-11-24T13:45:31.328Z,14.98
2022-11-24T13:47:58.734Z,15.48
2022-11-24T13:50:46.411Z,15.65
2022-11-24T13:53:17.622Z,17.77
2022-11-24T13:55:55.892Z,14.00
2022-11-24T13:58:25.915Z,16.80
2022-11-24T14:01:03.934Z,18.97
2022-11-24T14:03:34.587Z,16.48
2022-11-24T14:06:02.986Z,15.75
2022-11-24T14:08:38.985Z,17.48
2022-11-24T14:11:13.226Z,14.55
2022-11-24T14:13:40.524Z,17.20
2022-11-24T14:16:07.849Z,16.80
2022-11-24T14:18:36.107Z,17.88
2022-11-24T14:21:21.566Z,19.17
2022-11-24T14:23:53.147Z,21.33
2022-11-24T14:29:20.653Z,17.63
2022-11-24T14:31:54.235Z,19.38
2022-11-24T14:34:22.591Z,16.92
2022-11-24T14:36:50.316Z,16.20
2022-11-24T14:39:23.124Z,19.25
2022-11-24T14:41:52.514Z,20.70
2022-11-24T14:44:24.525Z,31.92
2022-11-24T14:46:52.286Z,29.77
2022-11-24T14:49:23.895Z,32.13
2022-11-24T14:51:55.196Z,26.92
2022-11-24T14:54:23.551Z,26.23
2022-11-24T14:57:06.034Z,25.05
2022-11-24T14:59:38.220Z,19.83
2022-11-24T15:02:25.460Z,19.60
2022-11-24T15:05:06.518Z,24.77
2022-11-24T15:07:36.675Z,23.27
2022-11-24T15:10:05.185Z,18.13
2022-11-24T15:12:39.969Z,17.00
2022-11-24T15:15:21.919Z,17.83
2022-11-24T15:17:50.493Z,18.38
2022-11-24T15:20:27.120Z,17.67
2022-11-24T15:23:14.607Z,20.58
2022-11-24T15:25:41.865Z,17.27
2022-11-24T15:28:09.385Z,20.38
2022-11-24T15:30:37.388Z,19.27
2022-11-24T15:33:11.760Z,24.13
2022-11-24T15:35:39.043Z,27.20
2022-11-24T15:38:06.324Z,29.55
2022-11-24T15:40:33.749Z,28.50
2022-11-24T15:43:06.275Z,32.42
2022-11-24T15:45:34.893Z,30.70
2022-11-24T15:48:02.188Z,23.60
2022-11-24T15:50:29.938Z,21.95
2022-11-24T15:52:57.978Z,18.20
2022-11-24T15:55:25.253Z,19.65
2022-11-24T15:57:52.505Z,20.98
2022-11-24T16:00:21.308Z,20.55
2022-11-24T16:02:48.953Z,21.02
2022-11-24T16:05:17.068Z,20.05
2022-11-24T16:07:44.681Z,19.48
2022-11-24T16:10:29.198Z,20.95
2022-11-24T16:12:56.466Z,21.65
2022-11-24T16:15:23.915Z,24.75
2022-11-24T16:17:51.317Z,22.45
2022-11-24T16:20:18.680Z,18.38
2022-11-24T16:22:46.104Z,18.15
2022-11-24T16:25:14.112Z,18.73
2022-11-24T16:27:41.338Z,20.38
2022-11-24T16:30:08.957Z,24.00
2022-11-24T16:32:36.335Z,20.10
2022-11-24T16:35:04.141Z,22.77
2022-11-24T16:37:32.178Z,17.33
2022-11-24T16:40:02.594Z,18.45
2022-11-24T16:42:30.789Z,24.48
2022-11-24T16:44:58.077Z,20.80
2022-11-24T16:47:25.626Z,21.90
2022-11-24T16:49:52.907Z,19.70
2022-11-24T16:52:20.216Z,20.42
2022-11-24T16:54:47.797Z,21.15
2022-11-24T16:57:15.793Z,20.65
2022-11-24T16:59:43.635Z,19.83
2022-11-24T17:02:12.905Z,18.15
2022-11-24T17:04:40.310Z,21.38
2022-11-24T17:07:08.000Z,22.88
2022-11-24T17:09:40.365Z,20.35
2022-11-24T17:12:08.233Z,22.63
2022-11-24T17:14:35.624Z,22.42
2022-11-24T17:17:04.095Z,22.70
2022-11-24T17:19:31.964Z,25.50
2022-11-24T17:21:59.551Z,20.50
2022-11-24T17:24:27.016Z,22.85
2022-11-24T17:26:54.237Z,23.77
2022-11-24T17:29:21.572Z,24.23
2022-11-24T17:31:49.199Z,24.15
2022-11-24T17:34:16.554Z,25.30
2022-11-24T17:36:46.060Z,22.30
2022-11-24T17:39:13.662Z,24.15
2022-11-24T17:41:40.997Z,20.77
2022-11-24T17:44:10.091Z,24.38
2022-11-24T17:46:37.674Z,20.77
2022-11-24T17:49:06.710Z,21.27
2022-11-24T17:51:33.968Z,23.15
2022-11-24T17:54:06.029Z,21.27
2022-11-24T17:56:48.324Z,23.52
2022-11-24T17:59:15.557Z,19.63
2022-11-24T18:01:42.929Z,23.25
2022-11-24T18:04:10.255Z,20.23
2022-11-24T18:06:38.613Z,23.80
2022-11-24T18:09:06.210Z,20.67
2022-11-24T18:11:33.543Z,24.52
2022-11-24T18:14:02.391Z,23.13
2022-11-24T18:16:31.262Z,24.77
2022-11-24T18:19:08.773Z,23.42
2022-11-24T18:21:46.620Z,23.15
2022-11-24T18:24:17.530Z,22.88
2022-11-24T18:26:48.316Z,22.90
2022-11-24T18:29:15.571Z,21.45
2022-11-24T18:31:42.865Z,22.40
2022-11-24T18:34:10.248Z,24.05
2022-11-24T18:36:37.564Z,21.13
2022-11-24T18:39:05.893Z,23.30
2022-11-24T18:41:33.300Z,21.00
2022-11-24T18:44:03.147Z,19.10
2022-11-24T18:46:30.602Z,17.65
2022-11-24T18:48:57.955Z,19.40
2022-11-24T18:51:25.378Z,21.55
2022-11-24T18:54:00.134Z,17.38
2022-11-24T18:56:27.764Z,19.52
2022-11-24T18:58:55.715Z,21.10
2022-11-24T19:01:27.082Z,21.65
2022-11-24T19:03:55.568Z,15.82
2022-11-24T19:06:24.525Z,19.75
2022-11-24T19:08:53.684Z,22.05
2022-11-24T19:11:22.877Z,23.30
2022-11-24T19:13:50.529Z,20.92
2022-11-24T19:16:18.730Z,21.80
2022-11-24T19:18:51.887Z,21.58
2022-11-24T19:21:21.259Z,22.25
2022-11-24T19:23:48.524Z,20.83
2022-11-24T19:26:16.031Z,23.45
2022-11-24T19:28:43.329Z,24.10
2022-11-24T19:31:12.615Z,23.55
2022-11-24T19:33:40.235Z,19.23
2022-11-24T19:36:08.848Z,20.00
2022-11-24T19:38:36.509Z,17.73
2022-11-24T19:41:05.221Z,17.77
2022-11-24T19:43:32.726Z,18.15
2022-11-24T19:46:03.796Z,18.55
2022-11-24T19:48:32.400Z,20.77
2022-11-24T19:51:00.701Z,16.85
2022-11-24T19:53:28.127Z,20.50
2022-11-24T19:55:55.441Z,18.90
2022-11-24T19:58:22.819Z,18.10
2022-11-24T20:00:50.207Z,17.02
2022-11-24T20:03:17.485Z,16.98
2022-11-24T20:05:44.756Z,17.77
2022-11-24T20:08:12.035Z,16.65
2022-11-24T20:10:42.513Z,16.48
2022-11-24T20:13:09.754Z,20.67
2022-11-24T20:15:37.041Z,19.98
2022-11-24T20:18:04.309Z,18.67
2022-11-24T20:20:32.710Z,18.20
2022-11-24T20:22:59.952Z,18.58
2022-11-24T20:25:27.207Z,15.00
2022-11-24T20:27:55.938Z,16.13
2022-11-24T20:30:23.235Z,17.35
2022-11-24T20:32:50.458Z,15.57
2022-11-24T20:35:18.525Z,14.02
2022-11-24T20:37:45.817Z,15.18
2022-11-24T20:40:15.264Z,17.48
2022-11-24T20:42:42.498Z,15.60
2022-11-24T20:45:09.788Z,18.00
2022-11-24T20:47:37.082Z,20.52
2022-11-24T20:50:04.501Z,18.02
2022-11-24T20:52:32.085Z,12.98
2022-11-24T20:55:03.710Z,17.45
2022-11-24T20:57:30.965Z,18.20
2022-11-24T20:59:58.464Z,15.98
2022-11-24T21:02:26.584Z,14.13
2022-11-24T21:04:53.844Z,14.10
2022-11-24T21:07:21.131Z,16.77
2022-11-24T21:09:48.529Z,15.23
2022-11-24T21:12:15.841Z,17.30
2022-11-24T21:14:43.202Z,15.15
2022-11-24T21:17:10.688Z,15.13
2022-11-24T21:19:37.927Z,16.65
2022-11-24T21:22:05.225Z,16.15
2022-11-24T21:24:32.777Z,14.85
2022-11-24T21:27:00.170Z,15.23
2022-11-24T21:29:27.784Z,13.50
2022-11-24T21:31:55.112Z,15.60
2022-11-24T21:34:22.444Z,18.83
2022-11-24T21:36:49.730Z,13.95
2022-11-24T21:39:17.201Z,16.38
2022-11-24T21:41:44.681Z,15.55
2022-11-24T21:44:13.504Z,16.17
2022-11-24T21:46:46.999Z,14.65
2022-11-24T21:49:16.752Z,13.60
2022-11-24T21:51:44.033Z,16.13
2022-11-24T21:54:11.316Z,15.27
2022-11-24T21:56:38.588Z,16.25
2022-11-24T21:59:05.819Z,15.95
2022-11-24T22:01:33.194Z,15.63
2022-11-24T22:04:00.468Z,15.32
2022-11-24T22:06:27.791Z,16.23
2022-11-24T22:08:56.033Z,16.27
2022-11-24T22:11:24.535Z,14.18
2022-11-24T22:13:52.122Z,16.27
2022-11-24T22:16:20.650Z,16.52
2022-11-24T22:18:48.207Z,15.18
2022-11-24T22:21:16.883Z,15.32
2022-11-24T22:23:44.417Z,16.30
2022-11-24T22:26:11.637Z,14.93
2022-11-24T22:28:39.420Z,16.90
2022-11-24T22:31:10.342Z,15.38
2022-11-24T22:36:05.201Z,14.35
2022-11-24T22:38:33.024Z,18.50
2022-11-24T22:41:03.951Z,15.20
2022-11-24T22:45:59.174Z,14.15
2022-11-24T22:48:28.066Z,14.98
2022-11-24T22:50:55.329Z,14.98
2022-11-24T22:53:22.609Z,14.20
2022-11-24T22:55:49.839Z,13.50
2022-11-24T22:58:17.052Z,17.08
2022-11-24T23:00:44.328Z,14.15
2022-11-24T23:03:11.732Z,15.20
2022-11-24T23:05:39.069Z,15.43
2022-11-24T23:08:06.305Z,15.25
2022-11-24T23:10:33.568Z,17.50
2022-11-24T23:13:00.818Z,17.67
2022-11-24T23:15:28.071Z,14.85
2022-11-24T23:17:55.329Z,17.00
2022-11-24T23:20:22.892Z,17.33
2022-11-24T23:22:51.407Z,14.45
2022-11-24T23:25:18.713Z,15.00
2022-11-24T23:27:45.938Z,13.23
2022-11-24T23:30:13.193Z,12.60
2022-11-24T23:32:40.433Z,16.92
2022-11-24T23:35:13.479Z,15.63
2022-11-24T23:38:05.980Z,15.65
2022-11-24T23:40:29.236Z,16.42
2022-11-24T23:42:56.491Z,16.33
2022-11-24T23:45:23.760Z,15.38
2022-11-24T23:47:51.019Z,14.48
2022-11-24T23:50:18.300Z,15.43
2022-11-24T23:52:45.584Z,15.90
2022-11-24T23:55:13.037Z,16.20
2022-11-24T23:57:40.288Z,15.25
